sensor_id;sensor_type;location;lat;lon;timestamp;pressure;altitude;pressure_sealevel;temperature;humidity
37610;BME280;23457;51.966;8.230;2023-04-01T00:01:24;98723.59;;;11.10;100.00
37610;BME280;23457;51.966;8.230;2023-04-01T00:03:51;98722.03;;;11.00;100.00
37610;BME280;23457;51.966;8.230;2023-04-01T00:06:18;98715.88;;;11.06;100.00
37610;BME280;23457;51.966;8.230;2023-04-01T00:08:45;98721.47;;;11.31;100.00
37610;BME280;23457;51.966;8.230;2023-04-01T00:11:13;98723.50;;;11.15;100.00
37610;BME280;23457;51.966;8.230;2023-04-01T00:13:40;98719.94;;;11.21;100.00
37610;BME280;23457;51.966;8.230;2023-04-01T00:16:08;98725.34;;;11.08;100.00
37610;BME280;23457;51.966;8.230;2023-04-01T00:18:46;98715.00;;;11.05;100.00
37610;BME280;23457;51.966;8.230;2023-04-01T00:21:15;98714.13;;;11.06;100.00
37610;BME280;23457;51.966;8.230;2023-04-01T00:23:42;98709.44;;;11.27;100.00
37610;BME280;23457;51.966;8.230;2023-04-01T00:26:08;98718.47;;;11.04;100.00
37610;BME280;23457;51.966;8.230;2023-04-01T00:28:36;98716.84;;;11.00;100.00
37610;BME280;23457;51.966;8.230;2023-04-01T00:31:05;98712.50;;;11.01;100.00
37610;BME280;23457;51.966;8.230;2023-04-01T00:33:32;98713.38;;;11.01;100.00
37610;BME280;23457;51.966;8.230;2023-04-01T00:36:10;98713.53;;;10.89;100.00
37610;BME280;23457;51.966;8.230;2023-04-01T00:38:37;98709.84;;;11.02;100.00
37610;BME280;23457;51.966;8.230;2023-04-01T00:41:05;98704.44;;;11.14;100.00
37610;BME280;23457;51.966;8.230;2023-04-01T00:43:33;98703.16;;;10.89;100.00
37610;BME280;23457;51.966;8.230;2023-04-01T00:45:59;98698.03;;;10.86;100.00
37610;BME280;23457;51.966;8.230;2023-04-01T00:48:30;98704.78;;;10.96;100.00
37610;BME280;23457;51.966;8.230;2023-04-01T00:51:01;98706.44;;;11.00;100.00
37610;BME280;23457;51.966;8.230;2023-04-01T00:53:30;98699.59;;;10.95;100.00
37610;BME280;23457;51.966;8.230;2023-04-01T00:56:05;98699.78;;;10.86;100.00
37610;BME280;23457;51.966;8.230;2023-04-01T00:58:38;98694.34;;;10.99;100.00
37610;BME280;23457;51.966;8.230;2023-04-01T01:01:08;98703.00;;;11.00;100.00
37610;BME280;23457;51.966;8.230;2023-04-01T01:03:36;98703.06;;;10.95;100.00
37610;BME280;23457;51.966;8.230;2023-04-01T01:12:13;98696.09;;;10.97;100.00
37610;BME280;23457;51.966;8.230;2023-04-01T01:31:11;98689.22;;;10.95;100.00
37610;BME280;23457;51.966;8.230;2023-04-01T01:34:15;98687.41;;;10.98;100.00
37610;BME280;23457;51.966;8.230;2023-04-01T01:36:48;98684.06;;;10.90;100.00
37610;BME280;23457;51.966;8.230;2023-04-01T01:39:18;98689.97;;;11.01;100.00
37610;BME280;23457;51.966;8.230;2023-04-01T01:41:47;98687.63;;;10.86;100.00
37610;BME280;23457;51.966;8.230;2023-04-01T01:44:16;98691.78;;;10.96;100.00
37610;BME280;23457;51.966;8.230;2023-04-01T01:46:45;98690.91;;;10.97;100.00
37610;BME280;23457;51.966;8.230;2023-04-01T01:49:12;98686.16;;;10.70;100.00
37610;BME280;23457;51.966;8.230;2023-04-01T01:51:40;98683.75;;;10.59;100.00
37610;BME280;23457;51.966;8.230;2023-04-01T01:54:13;98687.50;;;10.92;100.00
37610;BME280;23457;51.966;8.230;2023-04-01T01:56:41;98688.97;;;10.58;100.00
37610;BME280;23457;51.966;8.230;2023-04-01T01:59:11;98687.28;;;10.55;100.00
37610;BME280;23457;51.966;8.230;2023-04-01T02:01:42;98683.56;;;10.71;100.00
37610;BME280;23457;51.966;8.230;2023-04-01T02:04:13;98682.69;;;10.71;100.00
37610;BME280;23457;51.966;8.230;2023-04-01T02:06:54;98684.13;;;10.89;100.00
37610;BME280;23457;51.966;8.230;2023-04-01T02:09:22;98688.38;;;10.93;100.00
37610;BME280;23457;51.966;8.230;2023-04-01T02:11:52;98687.63;;;10.86;100.00
37610;BME280;23457;51.966;8.230;2023-04-01T02:14:21;98684.38;;;10.75;100.00
37610;BME280;23457;51.966;8.230;2023-04-01T02:16:53;98687.09;;;10.66;100.00
37610;BME280;23457;51.966;8.230;2023-04-01T02:19:26;98686.16;;;10.71;100.00
37610;BME280;23457;51.966;8.230;2023-04-01T02:21:57;98679.22;;;10.70;100.00
37610;BME280;23457;51.966;8.230;2023-04-01T02:24:28;98683.06;;;10.50;100.00
37610;BME280;23457;51.966;8.230;2023-04-01T02:26:56;98680.84;;;10.77;100.00
37610;BME280;23457;51.966;8.230;2023-04-01T02:29:24;98680.97;;;10.70;100.00
37610;BME280;23457;51.966;8.230;2023-04-01T02:31:54;98681.00;;;10.68;100.00
37610;BME280;23457;51.966;8.230;2023-04-01T02:34:22;98684.44;;;10.70;100.00
37610;BME280;23457;51.966;8.230;2023-04-01T02:36:51;98686.53;;;10.49;100.00
37610;BME280;23457;51.966;8.230;2023-04-01T02:39:17;98681.66;;;10.81;100.00
37610;BME280;23457;51.966;8.230;2023-04-01T02:41:45;98680.59;;;10.91;100.00
37610;BME280;23457;51.966;8.230;2023-04-01T02:44:13;98680.59;;;10.91;100.00
37610;BME280;23457;51.966;8.230;2023-04-01T02:46:42;98686.13;;;10.73;100.00
37610;BME280;23457;51.966;8.230;2023-04-01T02:49:08;98682.66;;;10.74;100.00
37610;BME280;23457;51.966;8.230;2023-04-01T02:51:35;98680.06;;;10.72;100.00
37610;BME280;23457;51.966;8.230;2023-04-01T02:54:02;98675.16;;;10.56;100.00
37610;BME280;23457;51.966;8.230;2023-04-01T02:56:29;98685.38;;;10.65;100.00
37610;BME280;23457;51.966;8.230;2023-04-01T02:58:56;98685.44;;;10.63;100.00
37610;BME280;23457;51.966;8.230;2023-04-01T03:01:23;98686.97;;;10.73;100.00
37610;BME280;23457;51.966;8.230;2023-04-01T03:03:50;98681.13;;;10.61;100.00
37610;BME280;23457;51.966;8.230;2023-04-01T03:06:17;98680.94;;;10.73;100.00
37610;BME280;23457;51.966;8.230;2023-04-01T03:08:44;98694.63;;;10.81;100.00
37610;BME280;23457;51.966;8.230;2023-04-01T03:11:12;98699.19;;;10.67;100.00
37610;BME280;23457;51.966;8.230;2023-04-01T03:13:39;98693.09;;;10.71;100.00
37610;BME280;23457;51.966;8.230;2023-04-01T03:16:06;98698.25;;;10.74;100.00
37610;BME280;23457;51.966;8.230;2023-04-01T03:18:34;98697.25;;;10.81;100.00
37610;BME280;23457;51.966;8.230;2023-04-01T03:21:22;98698.94;;;10.84;100.00
37610;BME280;23457;51.966;8.230;2023-04-01T03:23:49;98687.63;;;10.86;100.00
37610;BME280;23457;51.966;8.230;2023-04-01T03:26:16;98692.38;;;10.61;100.00
37610;BME280;23457;51.966;8.230;2023-04-01T03:28:43;98689.63;;;10.70;100.00
37610;BME280;23457;51.966;8.230;2023-04-01T03:31:11;98694.06;;;10.64;100.00
37610;BME280;23457;51.966;8.230;2023-04-01T03:33:45;98690.44;;;10.74;100.00
37610;BME280;23457;51.966;8.230;2023-04-01T03:36:12;98679.09;;;10.78;100.00
37610;BME280;23457;51.966;8.230;2023-04-01T03:38:43;98690.03;;;10.97;100.00
37610;BME280;23457;51.966;8.230;2023-04-01T03:41:14;98680.97;;;10.70;100.00
37610;BME280;23457;51.966;8.230;2023-04-01T03:43:43;98686.16;;;10.70;100.00
37610;BME280;23457;51.966;8.230;2023-04-01T03:46:10;98687.72;;;10.80;100.00
37610;BME280;23457;51.966;8.230;2023-04-01T03:48:37;98687.00;;;10.72;100.00
37610;BME280;23457;51.966;8.230;2023-04-01T03:51:08;98693.44;;;10.50;100.00
37610;BME280;23457;51.966;8.230;2023-04-01T03:53:35;98696.66;;;10.64;100.00
37610;BME280;23457;51.966;8.230;2023-04-01T03:56:08;98688.03;;;10.63;100.00
37610;BME280;23457;51.966;8.230;2023-04-01T03:58:35;98689.72;;;10.64;100.00
37610;BME280;23457;51.966;8.230;2023-04-01T04:01:13;98699.31;;;10.61;100.00
37610;BME280;23457;51.966;8.230;2023-04-01T04:03:40;98696.78;;;10.56;100.00
37610;BME280;23457;51.966;8.230;2023-04-01T04:06:11;98692.38;;;10.61;100.00
37610;BME280;23457;51.966;8.230;2023-04-01T04:08:38;98686.34;;;10.59;100.00
37610;BME280;23457;51.966;8.230;2023-04-01T04:11:04;98702.19;;;10.43;100.00
37610;BME280;23457;51.966;8.230;2023-04-01T04:13:32;98698.97;;;10.27;100.00
37610;BME280;23457;51.966;8.230;2023-04-01T04:16:00;98700.47;;;10.41;100.00
37610;BME280;23457;51.966;8.230;2023-04-01T04:18:28;98694.50;;;10.38;100.00
37610;BME280;23457;51.966;8.230;2023-04-01T04:20:55;98698.63;;;10.50;100.00
37610;BME280;23457;51.966;8.230;2023-04-01T04:23:22;98702.91;;;10.52;100.00
37610;BME280;23457;51.966;8.230;2023-04-01T04:25:59;98701.97;;;10.58;100.00
37610;BME280;23457;51.966;8.230;2023-04-01T04:28:27;98697.84;;;10.45;100.00
37610;BME280;23457;51.966;8.230;2023-04-01T04:30:57;98705.56;;;10.51;100.00
37610;BME280;23457;51.966;8.230;2023-04-01T04:33:24;98706.53;;;10.40;100.00
37610;BME280;23457;51.966;8.230;2023-04-01T04:35:55;98706.34;;;10.53;100.00
37610;BME280;23457;51.966;8.230;2023-04-01T04:38:22;98708.22;;;10.45;100.00
37610;BME280;23457;51.966;8.230;2023-04-01T04:40:49;98708.94;;;10.53;100.00
37610;BME280;23457;51.966;8.230;2023-04-01T04:43:17;98707.38;;;10.43;100.00
37610;BME280;23457;51.966;8.230;2023-04-01T04:45:44;98705.59;;;10.46;100.00
37610;BME280;23457;51.966;8.230;2023-04-01T04:48:13;98713.09;;;10.06;100.00
37610;BME280;23457;51.966;8.230;2023-04-01T04:50:48;98717.88;;;10.36;100.00
37610;BME280;23457;51.966;8.230;2023-04-01T04:53:18;98714.16;;;10.51;100.00
37610;BME280;23457;51.966;8.230;2023-04-01T04:55:47;98719.31;;;10.56;100.00
37610;BME280;23457;51.966;8.230;2023-04-01T04:58:23;98720.34;;;10.46;100.00
37610;BME280;23457;51.966;8.230;2023-04-01T05:00:50;98722.75;;;10.58;100.00
37610;BME280;23457;51.966;8.230;2023-04-01T05:03:25;98720.69;;;10.21;100.00
37610;BME280;23457;51.966;8.230;2023-04-01T05:05:53;98723.91;;;10.38;100.00
37610;BME280;23457;51.966;8.230;2023-04-01T05:08:20;98722.81;;;10.52;100.00
37610;BME280;23457;51.966;8.230;2023-04-01T05:10:46;98728.16;;;10.43;100.00
37610;BME280;23457;51.966;8.230;2023-04-01T05:13:13;98735.88;;;10.49;100.00
37610;BME280;23457;51.966;8.230;2023-04-01T05:15:41;98732.75;;;10.25;100.00
37610;BME280;23457;51.966;8.230;2023-04-01T05:18:08;98733.56;;;10.27;100.00
37610;BME280;23457;51.966;8.230;2023-04-01T05:20:34;98735.88;;;10.49;100.00
37610;BME280;23457;51.966;8.230;2023-04-01T05:23:02;98723.97;;;10.34;100.00
37610;BME280;23457;51.966;8.230;2023-04-01T05:25:29;98735.69;;;10.61;100.00
37610;BME280;23457;51.966;8.230;2023-04-01T05:27:57;98736.78;;;10.45;100.00
37610;BME280;23457;51.966;8.230;2023-04-01T05:30:23;98739.25;;;10.54;100.00
37610;BME280;23457;51.966;8.230;2023-04-01T05:33:16;98745.31;;;10.53;100.00
37610;BME280;23457;51.966;8.230;2023-04-01T05:35:43;98740.22;;;10.47;100.00
37610;BME280;23457;51.966;8.230;2023-04-01T05:38:10;98738.53;;;10.43;100.00
37610;BME280;23457;51.966;8.230;2023-04-01T05:40:36;98747.72;;;10.65;100.00
37610;BME280;23457;51.966;8.230;2023-04-01T05:43:03;98740.88;;;10.61;100.00
37610;BME280;23457;51.966;8.230;2023-04-01T05:45:30;98746.97;;;10.60;100.00
37610;BME280;23457;51.966;8.230;2023-04-01T05:48:00;98743.47;;;10.61;100.00
37610;BME280;23457;51.966;8.230;2023-04-01T05:50:31;98753.88;;;10.61;100.00
37610;BME280;23457;51.966;8.230;2023-04-01T05:52:58;98753.75;;;10.68;100.00
37610;BME280;23457;51.966;8.230;2023-04-01T05:55:25;98750.25;;;10.71;100.00
37610;BME280;23457;51.966;8.230;2023-04-01T05:57:52;98758.13;;;10.65;100.00
37610;BME280;23457;51.966;8.230;2023-04-01T06:00:18;98754.56;;;10.70;100.00
37610;BME280;23457;51.966;8.230;2023-04-01T06:02:47;98763.94;;;10.81;100.00
37610;BME280;23457;51.966;8.230;2023-04-01T06:05:22;98760.91;;;10.53;100.00
37610;BME280;23457;51.966;8.230;2023-04-01T06:07:58;98766.28;;;10.40;100.00
37610;BME280;23457;51.966;8.230;2023-04-01T06:16:02;98780.78;;;10.55;100.00
37610;BME280;23457;51.966;8.230;2023-04-01T06:19:16;98778.13;;;10.60;100.00
37610;BME280;23457;51.966;8.230;2023-04-01T06:37:32;98793.19;;;10.93;100.00
37610;BME280;23457;51.966;8.230;2023-04-01T06:46:00;98786.28;;;10.92;100.00
37610;BME280;23457;51.966;8.230;2023-04-01T06:51:58;98797.94;;;10.65;100.00
37610;BME280;23457;51.966;8.230;2023-04-01T06:54:49;98805.56;;;10.77;100.00
37610;BME280;23457;51.966;8.230;2023-04-01T06:57:47;98803.69;;;10.87;100.00
37610;BME280;23457;51.966;8.230;2023-04-01T07:00:30;98800.97;;;10.95;100.00
37610;BME280;23457;51.966;8.230;2023-04-01T07:03:50;98804.41;;;10.95;100.00
37610;BME280;23457;51.966;8.230;2023-04-01T07:05:51;98803.63;;;10.90;100.00
37610;BME280;23457;51.966;8.230;2023-04-01T07:08:25;98810.47;;;10.97;100.00
37610;BME280;23457;51.966;8.230;2023-04-01T07:11:04;98811.50;;;10.86;100.00
37610;BME280;23457;51.966;8.230;2023-04-01T07:14:10;98802.66;;;10.97;100.00
37610;BME280;23457;51.966;8.230;2023-04-01T07:16:45;98807.84;;;10.99;100.00
37610;BME280;23457;51.966;8.230;2023-04-01T07:19:22;98812.91;;;11.05;100.00
37610;BME280;23457;51.966;8.230;2023-04-01T07:25:21;98824.13;;;11.08;100.00
37610;BME280;23457;51.966;8.230;2023-04-01T07:28:16;98818.09;;;11.08;100.00
37610;BME280;23457;51.966;8.230;2023-04-01T07:33:44;98822.19;;;11.21;100.00
37610;BME280;23457;51.966;8.230;2023-04-01T07:47:27;98835.50;;;11.54;100.00
37610;BME280;23457;51.966;8.230;2023-04-01T07:50:11;98833.72;;;11.57;100.00
37610;BME280;23457;51.966;8.230;2023-04-01T08:01:18;98847.66;;;11.53;100.00
37610;BME280;23457;51.966;8.230;2023-04-01T08:12:35;98855.09;;;11.76;100.00
37610;BME280;23457;51.966;8.230;2023-04-01T08:15:34;98858.75;;;11.64;100.00
37610;BME280;23457;51.966;8.230;2023-04-01T08:23:38;98869.88;;;11.72;100.00
37610;BME280;23457;51.966;8.230;2023-04-01T08:26:17;98871.41;;;11.86;100.00
37610;BME280;23457;51.966;8.230;2023-04-01T08:29:11;98876.56;;;11.89;100.00
37610;BME280;23457;51.966;8.230;2023-04-01T08:32:00;98872.88;;;11.99;100.00
37610;BME280;23457;51.966;8.230;2023-04-01T08:34:39;98881.22;;;12.16;100.00
37610;BME280;23457;51.966;8.230;2023-04-01T08:37:21;98882.69;;;11.84;100.00
37610;BME280;23457;51.966;8.230;2023-04-01T08:48:45;98893.34;;;12.17;100.00
37610;BME280;23457;51.966;8.230;2023-04-01T08:59:32;98897.03;;;12.07;100.00
37610;BME280;23457;51.966;8.230;2023-04-01T09:33:49;98921.13;;;13.01;100.00
37610;BME280;23457;51.966;8.230;2023-04-01T09:42:43;98925.34;;;12.67;100.00
37610;BME280;23457;51.966;8.230;2023-04-01T09:45:37;98929.41;;;12.80;100.00
37610;BME280;23457;51.966;8.230;2023-04-01T10:06:51;98934.75;;;13.15;100.00
37610;BME280;23457;51.966;8.230;2023-04-01T10:15:29;98949.38;;;12.81;100.00
37610;BME280;23457;51.966;8.230;2023-04-01T10:21:11;98962.22;;;12.91;100.00
37610;BME280;23457;51.966;8.230;2023-04-01T10:33:19;98962.22;;;12.91;100.00
37610;BME280;23457;51.966;8.230;2023-04-01T10:56:15;98972.47;;;12.99;100.00
37610;BME280;23457;51.966;8.230;2023-04-01T11:05:28;98973.66;;;13.26;100.00
37610;BME280;23457;51.966;8.230;2023-04-01T11:20:09;98978.16;;;13.92;100.00
37610;BME280;23457;51.966;8.230;2023-04-01T11:40:27;98994.00;;;13.84;100.00
37610;BME280;23457;51.966;8.230;2023-04-01T11:46:30;99000.34;;;14.10;100.00
37610;BME280;23457;51.966;8.230;2023-04-01T11:49:06;99005.59;;;14.08;100.00
37610;BME280;23457;51.966;8.230;2023-04-01T12:09:12;99023.59;;;14.19;100.00
37610;BME280;23457;51.966;8.230;2023-04-01T12:12:03;99030.19;;;13.99;100.00
37610;BME280;23457;51.966;8.230;2023-04-01T12:14:47;99033.88;;;13.92;100.00
37610;BME280;23457;51.966;8.230;2023-04-01T12:26:00;99042.97;;;13.38;100.00
37610;BME280;23457;51.966;8.230;2023-04-01T12:55:46;99073.25;;;13.82;100.00
37610;BME280;23457;51.966;8.230;2023-04-01T13:01:46;99078.41;;;13.86;100.00
37610;BME280;23457;51.966;8.230;2023-04-01T13:04:29;99084.28;;;13.94;100.00
37610;BME280;23457;51.966;8.230;2023-04-01T13:07:22;99086.81;;;13.99;100.00
37610;BME280;23457;51.966;8.230;2023-04-01T13:20:40;99097.28;;;14.33;100.00
37610;BME280;23457;51.966;8.230;2023-04-01T13:29:04;99103.03;;;14.12;100.00
37610;BME280;23457;51.966;8.230;2023-04-01T13:35:00;99105.13;;;14.33;100.00
37610;BME280;23457;51.966;8.230;2023-04-01T13:37:46;99106.16;;;14.27;100.00
37610;BME280;23457;51.966;8.230;2023-04-01T13:42:53;99108.78;;;14.26;100.00
37610;BME280;23457;51.966;8.230;2023-04-01T13:59:39;99129.22;;;14.09;100.00
37610;BME280;23457;51.966;8.230;2023-04-01T14:10:57;99126.84;;;14.35;100.00
37610;BME280;23457;51.966;8.230;2023-04-01T14:30:41;99157.66;;;14.59;100.00
37610;BME280;23457;51.966;8.230;2023-04-01T14:36:27;99166.38;;;14.58;100.00
37610;BME280;23457;51.966;8.230;2023-04-01T14:39:26;99165.50;;;14.59;100.00
37610;BME280;23457;51.966;8.230;2023-04-01T14:48:07;99177.88;;;14.53;100.00
37610;BME280;23457;51.966;8.230;2023-04-01T14:50:42;99176.94;;;14.55;100.00
37610;BME280;23457;51.966;8.230;2023-04-01T14:58:20;99183.97;;;14.53;100.00
37610;BME280;23457;51.966;8.230;2023-04-01T15:12:16;99202.84;;;14.64;100.00
37610;BME280;23457;51.966;8.230;2023-04-01T15:20:22;99208.56;;;14.80;100.00
37610;BME280;23457;51.966;8.230;2023-04-01T15:23:05;99218.25;;;14.77;100.00
37610;BME280;23457;51.966;8.230;2023-04-01T15:30:54;99224.38;;;14.76;100.00
37610;BME280;23457;51.966;8.230;2023-04-01T15:36:25;99238.78;;;14.18;100.00
37610;BME280;23457;51.966;8.230;2023-04-01T15:39:21;99238.06;;;14.10;100.00
37610;BME280;23457;51.966;8.230;2023-04-01T15:42:28;99248.56;;;14.07;100.00
37610;BME280;23457;51.966;8.230;2023-04-01T15:55:48;99267.09;;;13.94;100.00
37610;BME280;23457;51.966;8.230;2023-04-01T16:06:36;99283.00;;;13.84;100.00
37610;BME280;23457;51.966;8.230;2023-04-01T16:09:08;99287.28;;;13.88;100.00
37610;BME280;23457;51.966;8.230;2023-04-01T16:19:53;99301.13;;;12.93;100.00
37610;BME280;23457;51.966;8.230;2023-04-01T16:22:27;99309.22;;;12.78;100.00
37610;BME280;23457;51.966;8.230;2023-04-01T16:25:04;99320.44;;;12.81;100.00
37610;BME280;23457;51.966;8.230;2023-04-01T16:30:25;99321.44;;;12.73;100.00
37610;BME280;23457;51.966;8.230;2023-04-01T16:33:01;99320.09;;;12.44;100.00
37610;BME280;23457;51.966;8.230;2023-04-01T16:35:43;99330.41;;;12.53;100.00
37610;BME280;23457;51.966;8.230;2023-04-01T16:43:38;99344.19;;;12.62;100.00
37610;BME280;23457;51.966;8.230;2023-04-01T16:46:27;99338.09;;;12.63;100.00
37610;BME280;23457;51.966;8.230;2023-04-01T16:57:25;99377.53;;;12.38;100.00
37610;BME280;23457;51.966;8.230;2023-04-01T16:59:55;99382.94;;;12.20;100.00
37610;BME280;23457;51.966;8.230;2023-04-01T17:02:33;99393.13;;;12.40;100.00
37610;BME280;23457;51.966;8.230;2023-04-01T17:05:12;99400.19;;;12.30;100.00
37610;BME280;23457;51.966;8.230;2023-04-01T17:10:46;99400.97;;;12.38;100.00
37610;BME280;23457;51.966;8.230;2023-04-01T17:13:41;99417.69;;;12.19;100.00
37610;BME280;23457;51.966;8.230;2023-04-01T17:21:47;99428.25;;;12.04;100.00
37610;BME280;23457;51.966;8.230;2023-04-01T17:32:59;99452.84;;;11.69;100.00
37610;BME280;23457;51.966;8.230;2023-04-01T17:35:35;99463.19;;;11.83;100.00
37610;BME280;23457;51.966;8.230;2023-04-01T17:40:59;99480.81;;;11.46;100.00
37610;BME280;23457;51.966;8.230;2023-04-01T17:48:56;99501.09;;;10.82;100.00
37610;BME280;23457;51.966;8.230;2023-04-01T17:59:24;99534.09;;;10.61;100.00
37610;BME280;23457;51.966;8.230;2023-04-01T18:07:53;99548.88;;;10.50;100.00
37610;BME280;23457;51.966;8.230;2023-04-01T18:13:34;99566.19;;;10.44;100.00
37610;BME280;23457;51.966;8.230;2023-04-01T18:16:26;99571.38;;;10.44;100.00
37610;BME280;23457;51.966;8.230;2023-04-01T18:24:06;99595.63;;;10.18;100.00
37610;BME280;23457;51.966;8.230;2023-04-01T18:26:39;99586.09;;;10.13;100.00
37610;BME280;23457;51.966;8.230;2023-04-01T18:29:13;99605.13;;;10.18;100.00
37610;BME280;23457;51.966;8.230;2023-04-01T18:31:51;99616.38;;;10.17;100.00
37610;BME280;23457;51.966;8.230;2023-04-01T18:34:42;99622.41;;;10.14;100.00
37610;BME280;23457;51.966;8.230;2023-04-01T18:37:22;99630.22;;;9.96;100.00
37610;BME280;23457;51.966;8.230;2023-04-01T18:43:00;99641.47;;;10.04;100.00
37610;BME280;23457;51.966;8.230;2023-04-01T18:45:45;99649.22;;;9.92;100.00
37610;BME280;23457;51.966;8.230;2023-04-01T18:50:55;99669.13;;;9.90;100.00
37610;BME280;23457;51.966;8.230;2023-04-01T18:53:28;99664.81;;;9.96;100.00
37610;BME280;23457;51.966;8.230;2023-04-01T18:56:01;99681.34;;;10.23;100.00
37610;BME280;23457;51.966;8.230;2023-04-01T18:58:34;99682.97;;;9.86;100.00
37610;BME280;23457;51.966;8.230;2023-04-01T19:03:39;99699.34;;;9.68;100.00
37610;BME280;23457;51.966;8.230;2023-04-01T19:06:18;99707.97;;;9.65;100.00
37610;BME280;23457;51.966;8.230;2023-04-01T19:08:46;99710.63;;;9.73;100.00
37610;BME280;23457;51.966;8.230;2023-04-01T19:14:20;99722.66;;;9.65;100.00
37610;BME280;23457;51.966;8.230;2023-04-01T19:17:16;99730.44;;;9.60;100.00
37610;BME280;23457;51.966;8.230;2023-04-01T19:20:20;99745.91;;;9.36;100.00
37610;BME280;23457;51.966;8.230;2023-04-01T19:25:51;99755.41;;;9.36;100.00
37610;BME280;23457;51.966;8.230;2023-04-01T19:36:50;99783.75;;;9.10;100.00
37610;BME280;23457;51.966;8.230;2023-04-01T19:45:02;99789.72;;;9.01;100.00
37610;BME280;23457;51.966;8.230;2023-04-01T19:53:20;99810.34;;;8.87;100.00
37610;BME280;23457;51.966;8.230;2023-04-01T19:56:07;99815.44;;;8.74;100.00
37610;BME280;23457;51.966;8.230;2023-04-01T20:01:59;99834.34;;;8.68;100.00
37610;BME280;23457;51.966;8.230;2023-04-01T20:04:42;99843.66;;;8.48;100.00
37610;BME280;23457;51.966;8.230;2023-04-01T20:07:12;99848.91;;;8.55;100.00
37610;BME280;23457;51.966;8.230;2023-04-01T20:10:14;99859.25;;;8.54;100.00
37610;BME280;23457;51.966;8.230;2023-04-01T20:12:56;99860.50;;;8.15;100.00
37610;BME280;23457;51.966;8.230;2023-04-01T20:15:33;99865.50;;;8.02;100.00
37610;BME280;23457;51.966;8.230;2023-04-01T20:18:04;99881.31;;;8.21;100.00
37610;BME280;23457;51.966;8.230;2023-04-01T20:20:33;99877.72;;;8.13;100.00
37610;BME280;23457;51.966;8.230;2023-04-01T20:23:32;99896.69;;;8.09;100.00
37610;BME280;23457;51.966;8.230;2023-04-01T20:26:12;99905.47;;;8.23;100.00
37610;BME280;23457;51.966;8.230;2023-04-01T20:31:39;99903.50;;;8.04;100.00
37610;BME280;23457;51.966;8.230;2023-04-01T20:37:29;99929.28;;;7.98;100.00
37610;BME280;23457;51.966;8.230;2023-04-01T20:40:53;99930.00;;;7.88;100.00
37610;BME280;23457;51.966;8.230;2023-04-01T21:20:54;100010.66;;;7.63;100.00
37610;BME280;23457;51.966;8.230;2023-04-01T21:29:18;100028.03;;;7.70;100.00
37610;BME280;23457;51.966;8.230;2023-04-01T21:34:49;100037.56;;;7.74;100.00
37610;BME280;23457;51.966;8.230;2023-04-01T22:01:21;100108.88;;;7.58;100.00
37610;BME280;23457;51.966;8.230;2023-04-01T22:07:04;100126.34;;;7.26;100.00
37610;BME280;23457;51.966;8.230;2023-04-01T22:12:42;100139.19;;;7.23;100.00
37610;BME280;23457;51.966;8.230;2023-04-01T22:15:40;100141.06;;;7.30;100.00
37610;BME280;23457;51.966;8.230;2023-04-01T22:18:20;100152.06;;;7.20;100.00
37610;BME280;23457;51.966;8.230;2023-04-01T22:26:23;100163.84;;;7.06;100.00
37610;BME280;23457;51.966;8.230;2023-04-01T22:32:11;100178.84;;;6.84;100.00
37610;BME280;23457;51.966;8.230;2023-04-01T22:35:07;100177.78;;;6.75;100.00
37610;BME280;23457;51.966;8.230;2023-04-01T22:37:55;100189.81;;;6.74;100.00
37610;BME280;23457;51.966;8.230;2023-04-01T22:43:04;100187.31;;;6.41;100.00
37610;BME280;23457;51.966;8.230;2023-04-01T22:56:35;100221.50;;;6.67;100.00
37610;BME280;23457;51.966;8.230;2023-04-01T23:02:10;100233.72;;;6.74;100.00
37610;BME280;23457;51.966;8.230;2023-04-01T23:04:38;100238.09;;;6.77;100.00
37610;BME280;23457;51.966;8.230;2023-04-01T23:09:48;100242.66;;;6.89;100.00
37610;BME280;23457;51.966;8.230;2023-04-01T23:12:15;100252.59;;;6.70;100.00
37610;BME280;23457;51.966;8.230;2023-04-01T23:14:56;100266.31;;;6.69;100.00
37610;BME280;23457;51.966;8.230;2023-04-01T23:17:34;100262.44;;;6.52;100.00
37610;BME280;23457;51.966;8.230;2023-04-01T23:23:30;100276.47;;;6.29;100.00
37610;BME280;23457;51.966;8.230;2023-04-01T23:26:12;100282.06;;;6.13;100.00
37610;BME280;23457;51.966;8.230;2023-04-01T23:28:55;100282.50;;;6.29;100.00
37610;BME280;23457;51.966;8.230;2023-04-01T23:31:34;100292.34;;;6.11;100.00
37610;BME280;23457;51.966;8.230;2023-04-01T23:36:43;100302.88;;;6.19;100.00
37610;BME280;23457;51.966;8.230;2023-04-01T23:39:26;100308.72;;;6.13;100.00
37610;BME280;23457;51.966;8.230;2023-04-01T23:41:58;100304.16;;;6.03;100.00
37610;BME280;23457;51.966;8.230;2023-04-01T23:44:27;100311.19;;;6.08;100.00
37610;BME280;23457;51.966;8.230;2023-04-01T23:46:57;100314.53;;;6.04;100.00
37610;BME280;23457;51.966;8.230;2023-04-01T23:49:30;100318.28;;;5.87;100.00
37610;BME280;23457;51.966;8.230;2023-04-01T23:52:04;100329.81;;;6.28;100.00
37610;BME280;23457;51.966;8.230;2023-04-01T23:54:42;100337.41;;;6.24;100.00
37610;BME280;23457;51.966;8.230;2023-04-01T23:57:15;100340.22;;;6.31;100.00
